sensor_id;sensor_type;location;lat;lon;timestamp;temperature;humidity
47604;DHT22;33326;51.116;6.900;2022-10-31T00:00:19;15.30;99.90
47604;DHT22;33326;51.116;6.900;2022-10-31T00:05:22;15.30;99.90
47604;DHT22;33326;51.116;6.900;2022-10-31T00:10:24;15.20;99.90
47604;DHT22;33326;51.116;6.900;2022-10-31T00:15:26;15.20;99.90
47604;DHT22;33326;51.116;6.900;2022-10-31T00:20:30;15.20;99.90
47604;DHT22;33326;51.116;6.900;2022-10-31T00:25:34;15.20;99.90
47604;DHT22;33326;51.116;6.900;2022-10-31T00:30:36;15.10;99.90
47604;DHT22;33326;51.116;6.900;2022-10-31T00:35:39;15.00;99.90
47604;DHT22;33326;51.116;6.900;2022-10-31T00:40:41;15.00;99.90
47604;DHT22;33326;51.116;6.900;2022-10-31T00:45:44;15.00;99.90
47604;DHT22;33326;51.116;6.900;2022-10-31T00:50:47;14.90;99.90
47604;DHT22;33326;51.116;6.900;2022-10-31T00:55:50;15.00;99.90
47604;DHT22;33326;51.116;6.900;2022-10-31T01:00:53;14.80;99.90
47604;DHT22;33326;51.116;6.900;2022-10-31T01:05:59;14.80;99.90
47604;DHT22;33326;51.116;6.900;2022-10-31T01:11:05;15.00;99.90
47604;DHT22;33326;51.116;6.900;2022-10-31T01:16:10;15.10;99.90
47604;DHT22;33326;51.116;6.900;2022-10-31T01:21:15;15.20;99.90
47604;DHT22;33326;51.116;6.900;2022-10-31T01:26:20;15.20;99.90
47604;DHT22;33326;51.116;6.900;2022-10-31T01:31:24;15.20;99.90
47604;DHT22;33326;51.116;6.900;2022-10-31T01:36:30;15.10;99.90
47604;DHT22;33326;51.116;6.900;2022-10-31T01:41:35;15.20;99.90
47604;DHT22;33326;51.116;6.900;2022-10-31T01:46:41;15.20;99.90
47604;DHT22;33326;51.116;6.900;2022-10-31T01:51:49;15.20;99.90
47604;DHT22;33326;51.116;6.900;2022-10-31T01:56:54;15.10;99.90
47604;DHT22;33326;51.116;6.900;2022-10-31T02:01:57;15.00;99.90
47604;DHT22;33326;51.116;6.900;2022-10-31T02:07:05;14.80;99.90
47604;DHT22;33326;51.116;6.900;2022-10-31T02:12:10;14.70;99.90
47604;DHT22;33326;51.116;6.900;2022-10-31T02:17:13;14.70;99.90
47604;DHT22;33326;51.116;6.900;2022-10-31T02:22:21;14.60;99.90
47604;DHT22;33326;51.116;6.900;2022-10-31T02:33:07;14.50;99.90
47604;DHT22;33326;51.116;6.900;2022-10-31T02:38:37;14.40;99.90
47604;DHT22;33326;51.116;6.900;2022-10-31T02:43:50;14.40;99.90
47604;DHT22;33326;51.116;6.900;2022-10-31T02:49:07;14.30;99.90
47604;DHT22;33326;51.116;6.900;2022-10-31T02:54:18;14.20;99.90
47604;DHT22;33326;51.116;6.900;2022-10-31T02:59:24;14.20;99.90
47604;DHT22;33326;51.116;6.900;2022-10-31T03:04:40;14.10;99.90
47604;DHT22;33326;51.116;6.900;2022-10-31T03:09:50;14.10;99.90
47604;DHT22;33326;51.116;6.900;2022-10-31T03:15:00;14.10;99.90
47604;DHT22;33326;51.116;6.900;2022-10-31T03:20:09;14.00;99.90
47604;DHT22;33326;51.116;6.900;2022-10-31T03:25:12;14.10;99.90
47604;DHT22;33326;51.116;6.900;2022-10-31T03:30:15;14.20;99.90
47604;DHT22;33326;51.116;6.900;2022-10-31T03:35:30;14.20;99.90
47604;DHT22;33326;51.116;6.900;2022-10-31T03:40:38;14.20;99.90
47604;DHT22;33326;51.116;6.900;2022-10-31T03:45:45;14.30;99.90
47604;DHT22;33326;51.116;6.900;2022-10-31T03:50:53;14.30;99.90
47604;DHT22;33326;51.116;6.900;2022-10-31T03:56:02;14.40;99.90
47604;DHT22;33326;51.116;6.900;2022-10-31T04:01:09;14.40;99.90
47604;DHT22;33326;51.116;6.900;2022-10-31T04:06:18;14.50;99.90
47604;DHT22;33326;51.116;6.900;2022-10-31T04:11:23;14.50;99.90
47604;DHT22;33326;51.116;6.900;2022-10-31T04:16:46;14.50;99.90
47604;DHT22;33326;51.116;6.900;2022-10-31T04:21:50;14.60;99.90
47604;DHT22;33326;51.116;6.900;2022-10-31T04:26:51;14.60;99.90
47604;DHT22;33326;51.116;6.900;2022-10-31T04:31:56;14.60;99.90
47604;DHT22;33326;51.116;6.900;2022-10-31T04:36:59;14.50;99.90
47604;DHT22;33326;51.116;6.900;2022-10-31T04:42:02;14.40;99.90
47604;DHT22;33326;51.116;6.900;2022-10-31T04:47:04;14.30;99.90
47604;DHT22;33326;51.116;6.900;2022-10-31T04:52:08;14.30;99.90
47604;DHT22;33326;51.116;6.900;2022-10-31T04:57:11;14.30;99.90
47604;DHT22;33326;51.116;6.900;2022-10-31T05:02:13;14.20;99.90
47604;DHT22;33326;51.116;6.900;2022-10-31T05:07:39;14.20;99.90
47604;DHT22;33326;51.116;6.900;2022-10-31T05:12:46;14.20;99.90
47604;DHT22;33326;51.116;6.900;2022-10-31T05:18:12;14.20;99.90
47604;DHT22;33326;51.116;6.900;2022-10-31T05:23:35;14.10;99.90
47604;DHT22;33326;51.116;6.900;2022-10-31T05:28:41;14.10;99.90
47604;DHT22;33326;51.116;6.900;2022-10-31T05:33:45;14.10;99.90
47604;DHT22;33326;51.116;6.900;2022-10-31T05:39:27;14.10;99.90
47604;DHT22;33326;51.116;6.900;2022-10-31T05:44:38;14.10;99.90
47604;DHT22;33326;51.116;6.900;2022-10-31T05:49:55;14.10;99.90
47604;DHT22;33326;51.116;6.900;2022-10-31T05:55:17;14.10;99.90
47604;DHT22;33326;51.116;6.900;2022-10-31T06:00:36;14.00;99.90
47604;DHT22;33326;51.116;6.900;2022-10-31T06:05:42;13.90;99.90
47604;DHT22;33326;51.116;6.900;2022-10-31T06:10:45;13.90;99.90
47604;DHT22;33326;51.116;6.900;2022-10-31T06:15:50;13.80;99.90
47604;DHT22;33326;51.116;6.900;2022-10-31T06:20:56;13.90;99.90
47604;DHT22;33326;51.116;6.900;2022-10-31T06:25:59;13.80;99.90
47604;DHT22;33326;51.116;6.900;2022-10-31T06:31:01;13.80;99.90
47604;DHT22;33326;51.116;6.900;2022-10-31T06:36:05;13.80;99.90
47604;DHT22;33326;51.116;6.900;2022-10-31T06:41:09;13.70;99.90
47604;DHT22;33326;51.116;6.900;2022-10-31T06:46:18;13.70;99.90
47604;DHT22;33326;51.116;6.900;2022-10-31T06:51:39;13.70;99.90
47604;DHT22;33326;51.116;6.900;2022-10-31T06:56:45;13.70;99.90
47604;DHT22;33326;51.116;6.900;2022-10-31T07:01:47;13.70;99.90
47604;DHT22;33326;51.116;6.900;2022-10-31T07:06:50;13.80;99.90
47604;DHT22;33326;51.116;6.900;2022-10-31T07:11:56;13.80;99.90
47604;DHT22;33326;51.116;6.900;2022-10-31T07:16:58;13.90;99.90
47604;DHT22;33326;51.116;6.900;2022-10-31T07:22:06;14.00;99.90
47604;DHT22;33326;51.116;6.900;2022-10-31T07:27:11;14.00;99.90
47604;DHT22;33326;51.116;6.900;2022-10-31T07:32:13;14.10;99.90
47604;DHT22;33326;51.116;6.900;2022-10-31T07:37:21;14.10;99.90
47604;DHT22;33326;51.116;6.900;2022-10-31T07:42:24;14.10;99.90
47604;DHT22;33326;51.116;6.900;2022-10-31T07:47:26;14.10;99.90
47604;DHT22;33326;51.116;6.900;2022-10-31T07:52:47;14.20;99.90
47604;DHT22;33326;51.116;6.900;2022-10-31T07:58:20;14.30;99.90
47604;DHT22;33326;51.116;6.900;2022-10-31T08:03:22;14.40;99.90
47604;DHT22;33326;51.116;6.900;2022-10-31T08:08:42;14.40;99.90
47604;DHT22;33326;51.116;6.900;2022-10-31T08:13:46;14.20;99.90
47604;DHT22;33326;51.116;6.900;2022-10-31T08:18:49;14.30;99.90
47604;DHT22;33326;51.116;6.900;2022-10-31T08:23:52;14.50;99.90
47604;DHT22;33326;51.116;6.900;2022-10-31T08:28:58;14.70;99.90
47604;DHT22;33326;51.116;6.900;2022-10-31T08:34:05;14.80;99.90
47604;DHT22;33326;51.116;6.900;2022-10-31T08:39:36;14.90;99.90
47604;DHT22;33326;51.116;6.900;2022-10-31T08:44:40;14.80;99.90
47604;DHT22;33326;51.116;6.900;2022-10-31T08:49:42;15.00;99.90
47604;DHT22;33326;51.116;6.900;2022-10-31T08:54:44;15.10;99.90
47604;DHT22;33326;51.116;6.900;2022-10-31T09:00:07;15.20;99.90
47604;DHT22;33326;51.116;6.900;2022-10-31T09:05:34;15.40;99.90
47604;DHT22;33326;51.116;6.900;2022-10-31T09:10:36;15.60;99.90
47604;DHT22;33326;51.116;6.900;2022-10-31T09:15:40;15.80;99.90
47604;DHT22;33326;51.116;6.900;2022-10-31T09:20:57;15.80;99.90
47604;DHT22;33326;51.116;6.900;2022-10-31T09:26:01;15.90;99.90
47604;DHT22;33326;51.116;6.900;2022-10-31T09:31:23;16.10;99.90
47604;DHT22;33326;51.116;6.900;2022-10-31T09:36:52;16.10;99.90
47604;DHT22;33326;51.116;6.900;2022-10-31T09:42:09;16.20;99.90
47604;DHT22;33326;51.116;6.900;2022-10-31T09:47:27;16.40;99.90
47604;DHT22;33326;51.116;6.900;2022-10-31T09:52:58;16.50;99.90
47604;DHT22;33326;51.116;6.900;2022-10-31T09:58:03;16.60;99.90
47604;DHT22;33326;51.116;6.900;2022-10-31T10:03:12;16.70;99.90
47604;DHT22;33326;51.116;6.900;2022-10-31T10:08:26;16.80;99.90
47604;DHT22;33326;51.116;6.900;2022-10-31T10:14:00;17.00;99.90
47604;DHT22;33326;51.116;6.900;2022-10-31T10:19:16;17.00;99.90
47604;DHT22;33326;51.116;6.900;2022-10-31T10:24:39;17.30;99.90
47604;DHT22;33326;51.116;6.900;2022-10-31T10:29:52;17.50;99.90
47604;DHT22;33326;51.116;6.900;2022-10-31T10:35:00;17.70;99.90
47604;DHT22;33326;51.116;6.900;2022-10-31T10:40:11;17.70;99.90
47604;DHT22;33326;51.116;6.900;2022-10-31T10:45:16;17.80;99.90
47604;DHT22;33326;51.116;6.900;2022-10-31T10:50:41;17.90;99.90
47604;DHT22;33326;51.116;6.900;2022-10-31T10:55:49;18.00;99.90
47604;DHT22;33326;51.116;6.900;2022-10-31T11:00:53;18.20;99.90
47604;DHT22;33326;51.116;6.900;2022-10-31T11:05:58;18.40;99.90
47604;DHT22;33326;51.116;6.900;2022-10-31T11:11:03;18.80;99.90
47604;DHT22;33326;51.116;6.900;2022-10-31T11:16:07;19.10;99.90
47604;DHT22;33326;51.116;6.900;2022-10-31T11:21:21;19.40;99.90
47604;DHT22;33326;51.116;6.900;2022-10-31T11:26:23;19.80;99.90
47604;DHT22;33326;51.116;6.900;2022-10-31T11:31:25;20.10;99.90
47604;DHT22;33326;51.116;6.900;2022-10-31T11:36:31;20.30;99.90
47604;DHT22;33326;51.116;6.900;2022-10-31T11:41:35;20.40;99.90
47604;DHT22;33326;51.116;6.900;2022-10-31T11:46:40;20.50;99.90
47604;DHT22;33326;51.116;6.900;2022-10-31T11:51:48;20.90;99.90
47604;DHT22;33326;51.116;6.900;2022-10-31T11:56:51;21.40;99.90
47604;DHT22;33326;51.116;6.900;2022-10-31T12:01:54;21.60;99.90
47604;DHT22;33326;51.116;6.900;2022-10-31T12:06:58;22.00;99.90
47604;DHT22;33326;51.116;6.900;2022-10-31T12:12:21;22.40;99.90
47604;DHT22;33326;51.116;6.900;2022-10-31T12:17:30;22.80;99.90
47604;DHT22;33326;51.116;6.900;2022-10-31T12:22:43;23.00;99.90
47604;DHT22;33326;51.116;6.900;2022-10-31T12:28:13;23.00;99.90
47604;DHT22;33326;51.116;6.900;2022-10-31T12:33:33;23.10;99.90
47604;DHT22;33326;51.116;6.900;2022-10-31T12:39:02;23.00;99.90
47604;DHT22;33326;51.116;6.900;2022-10-31T12:44:13;23.00;99.90
47604;DHT22;33326;51.116;6.900;2022-10-31T12:49:26;23.00;99.90
47604;DHT22;33326;51.116;6.900;2022-10-31T12:54:58;23.00;99.90
47604;DHT22;33326;51.116;6.900;2022-10-31T13:00:07;22.80;99.90
47604;DHT22;33326;51.116;6.900;2022-10-31T13:05:17;22.60;99.90
47604;DHT22;33326;51.116;6.900;2022-10-31T13:10:25;22.60;99.90
47604;DHT22;33326;51.116;6.900;2022-10-31T13:15:32;22.50;99.90
47604;DHT22;33326;51.116;6.900;2022-10-31T13:20:40;22.20;99.90
47604;DHT22;33326;51.116;6.900;2022-10-31T13:25:46;21.90;99.90
47604;DHT22;33326;51.116;6.900;2022-10-31T13:30:50;22.10;99.90
47604;DHT22;33326;51.116;6.900;2022-10-31T13:35:57;22.30;99.90
47604;DHT22;33326;51.116;6.900;2022-10-31T13:41:39;22.20;99.90
47604;DHT22;33326;51.116;6.900;2022-10-31T13:46:44;22.10;99.90
47604;DHT22;33326;51.116;6.900;2022-10-31T13:51:46;22.10;99.90
47604;DHT22;33326;51.116;6.900;2022-10-31T13:56:51;22.30;99.90
47604;DHT22;33326;51.116;6.900;2022-10-31T14:01:56;22.10;99.90
47604;DHT22;33326;51.116;6.900;2022-10-31T14:07:05;21.70;99.90
47604;DHT22;33326;51.116;6.900;2022-10-31T14:12:13;21.50;99.90
47604;DHT22;33326;51.116;6.900;2022-10-31T14:17:25;21.40;99.90
47604;DHT22;33326;51.116;6.900;2022-10-31T14:22:31;21.20;99.90
47604;DHT22;33326;51.116;6.900;2022-10-31T14:27:45;21.20;99.90
47604;DHT22;33326;51.116;6.900;2022-10-31T14:32:50;21.10;99.90
47604;DHT22;33326;51.116;6.900;2022-10-31T14:38:14;20.90;99.90
47604;DHT22;33326;51.116;6.900;2022-10-31T14:44:02;20.80;99.90
47604;DHT22;33326;51.116;6.900;2022-10-31T14:49:21;20.70;99.90
47604;DHT22;33326;51.116;6.900;2022-10-31T14:54:29;20.60;99.90
47604;DHT22;33326;51.116;6.900;2022-10-31T14:59:36;20.50;99.90
47604;DHT22;33326;51.116;6.900;2022-10-31T15:04:39;20.40;99.90
47604;DHT22;33326;51.116;6.900;2022-10-31T15:09:42;20.40;99.90
47604;DHT22;33326;51.116;6.900;2022-10-31T15:14:45;20.40;99.90
47604;DHT22;33326;51.116;6.900;2022-10-31T15:19:47;20.40;99.90
47604;DHT22;33326;51.116;6.900;2022-10-31T15:24:49;20.40;99.90
47604;DHT22;33326;51.116;6.900;2022-10-31T15:29:57;20.30;99.90
47604;DHT22;33326;51.116;6.900;2022-10-31T15:34:59;20.20;99.90
47604;DHT22;33326;51.116;6.900;2022-10-31T15:40:07;20.10;99.90
47604;DHT22;33326;51.116;6.900;2022-10-31T15:45:19;20.00;99.90
47604;DHT22;33326;51.116;6.900;2022-10-31T15:50:28;19.80;99.90
47604;DHT22;33326;51.116;6.900;2022-10-31T15:55:38;19.80;99.90
47604;DHT22;33326;51.116;6.900;2022-10-31T16:00:59;19.70;99.90
47604;DHT22;33326;51.116;6.900;2022-10-31T16:06:03;19.60;99.90
47604;DHT22;33326;51.116;6.900;2022-10-31T16:11:18;19.50;99.90
47604;DHT22;33326;51.116;6.900;2022-10-31T16:16:25;19.50;99.90
47604;DHT22;33326;51.116;6.900;2022-10-31T16:21:31;19.40;99.90
47604;DHT22;33326;51.116;6.900;2022-10-31T16:26:33;19.30;99.90
47604;DHT22;33326;51.116;6.900;2022-10-31T16:31:39;19.20;99.90
47604;DHT22;33326;51.116;6.900;2022-10-31T16:36:41;19.10;99.90
47604;DHT22;33326;51.116;6.900;2022-10-31T16:41:46;19.10;99.90
47604;DHT22;33326;51.116;6.900;2022-10-31T16:47:10;19.10;99.90
47604;DHT22;33326;51.116;6.900;2022-10-31T16:52:13;19.00;99.90
47604;DHT22;33326;51.116;6.900;2022-10-31T16:57:19;18.90;99.90
47604;DHT22;33326;51.116;6.900;2022-10-31T17:02:23;18.90;99.90
47604;DHT22;33326;51.116;6.900;2022-10-31T17:07:25;18.80;99.90
47604;DHT22;33326;51.116;6.900;2022-10-31T17:12:27;18.80;99.90
47604;DHT22;33326;51.116;6.900;2022-10-31T17:17:31;18.70;99.90
47604;DHT22;33326;51.116;6.900;2022-10-31T17:22:32;18.70;99.90
47604;DHT22;33326;51.116;6.900;2022-10-31T17:27:34;18.70;99.90
47604;DHT22;33326;51.116;6.900;2022-10-31T17:32:38;18.60;99.90
47604;DHT22;33326;51.116;6.900;2022-10-31T17:37:40;18.50;99.90
47604;DHT22;33326;51.116;6.900;2022-10-31T17:42:48;18.40;99.90
47604;DHT22;33326;51.116;6.900;2022-10-31T17:47:52;18.30;99.90
47604;DHT22;33326;51.116;6.900;2022-10-31T17:52:54;18.20;99.90
47604;DHT22;33326;51.116;6.900;2022-10-31T17:57:58;18.10;99.90
47604;DHT22;33326;51.116;6.900;2022-10-31T18:03:02;18.10;99.90
47604;DHT22;33326;51.116;6.900;2022-10-31T18:08:04;18.00;99.90
47604;DHT22;33326;51.116;6.900;2022-10-31T18:13:06;18.00;99.90
47604;DHT22;33326;51.116;6.900;2022-10-31T18:18:09;18.00;99.90
47604;DHT22;33326;51.116;6.900;2022-10-31T18:23:11;17.90;99.90
47604;DHT22;33326;51.116;6.900;2022-10-31T18:28:13;17.90;99.90
47604;DHT22;33326;51.116;6.900;2022-10-31T18:33:17;17.90;99.90
47604;DHT22;33326;51.116;6.900;2022-10-31T18:38:18;17.90;99.90
47604;DHT22;33326;51.116;6.900;2022-10-31T18:43:20;17.90;99.90
47604;DHT22;33326;51.116;6.900;2022-10-31T18:48:24;17.90;99.90
47604;DHT22;33326;51.116;6.900;2022-10-31T18:53:27;17.90;99.90
47604;DHT22;33326;51.116;6.900;2022-10-31T18:58:31;17.90;99.90
47604;DHT22;33326;51.116;6.900;2022-10-31T19:03:35;17.80;99.90
47604;DHT22;33326;51.116;6.900;2022-10-31T19:08:38;17.80;99.90
47604;DHT22;33326;51.116;6.900;2022-10-31T19:13:40;17.80;99.90
47604;DHT22;33326;51.116;6.900;2022-10-31T19:18:44;17.70;99.90
47604;DHT22;33326;51.116;6.900;2022-10-31T19:23:46;17.70;99.90
47604;DHT22;33326;51.116;6.900;2022-10-31T19:28:48;17.70;99.90
47604;DHT22;33326;51.116;6.900;2022-10-31T19:33:51;17.70;99.90
47604;DHT22;33326;51.116;6.900;2022-10-31T19:38:53;17.70;99.90
47604;DHT22;33326;51.116;6.900;2022-10-31T19:43:58;17.70;99.90
47604;DHT22;33326;51.116;6.900;2022-10-31T19:49:01;17.60;99.90
47604;DHT22;33326;51.116;6.900;2022-10-31T19:54:03;17.60;99.90
47604;DHT22;33326;51.116;6.900;2022-10-31T19:59:05;17.60;99.90
47604;DHT22;33326;51.116;6.900;2022-10-31T20:04:09;17.50;99.90
47604;DHT22;33326;51.116;6.900;2022-10-31T20:09:12;17.50;99.90
47604;DHT22;33326;51.116;6.900;2022-10-31T20:14:15;17.40;99.90
47604;DHT22;33326;51.116;6.900;2022-10-31T20:19:19;17.40;99.90
47604;DHT22;33326;51.116;6.900;2022-10-31T20:24:21;17.40;99.90
47604;DHT22;33326;51.116;6.900;2022-10-31T20:29:23;17.30;99.90
47604;DHT22;33326;51.116;6.900;2022-10-31T20:34:27;17.30;99.90
47604;DHT22;33326;51.116;6.900;2022-10-31T20:39:28;17.30;99.90
47604;DHT22;33326;51.116;6.900;2022-10-31T20:44:31;17.20;99.90
47604;DHT22;33326;51.116;6.900;2022-10-31T20:49:35;17.20;99.90
47604;DHT22;33326;51.116;6.900;2022-10-31T20:54:37;17.20;99.90
47604;DHT22;33326;51.116;6.900;2022-10-31T20:59:39;17.10;99.90
47604;DHT22;33326;51.116;6.900;2022-10-31T21:04:42;17.10;99.90
47604;DHT22;33326;51.116;6.900;2022-10-31T21:09:44;17.10;99.90
47604;DHT22;33326;51.116;6.900;2022-10-31T21:14:46;17.10;99.90
47604;DHT22;33326;51.116;6.900;2022-10-31T21:19:49;17.10;99.90
47604;DHT22;33326;51.116;6.900;2022-10-31T21:24:51;17.10;99.90
47604;DHT22;33326;51.116;6.900;2022-10-31T21:29:53;17.10;99.90
47604;DHT22;33326;51.116;6.900;2022-10-31T21:34:56;17.10;99.90
47604;DHT22;33326;51.116;6.900;2022-10-31T21:39:58;17.00;99.90
47604;DHT22;33326;51.116;6.900;2022-10-31T21:45:00;17.10;99.90
47604;DHT22;33326;51.116;6.900;2022-10-31T21:50:03;17.00;99.90
47604;DHT22;33326;51.116;6.900;2022-10-31T21:55:06;17.10;99.90
47604;DHT22;33326;51.116;6.900;2022-10-31T22:00:09;17.10;99.90
47604;DHT22;33326;51.116;6.900;2022-10-31T22:05:13;17.10;99.90
47604;DHT22;33326;51.116;6.900;2022-10-31T22:10:15;17.10;99.90
47604;DHT22;33326;51.116;6.900;2022-10-31T22:15:17;17.00;99.90
47604;DHT22;33326;51.116;6.900;2022-10-31T22:20:23;17.10;99.90
47604;DHT22;33326;51.116;6.900;2022-10-31T22:25:25;17.00;99.90
47604;DHT22;33326;51.116;6.900;2022-10-31T22:30:27;17.10;99.90
47604;DHT22;33326;51.116;6.900;2022-10-31T22:35:32;17.10;99.90
47604;DHT22;33326;51.116;6.900;2022-10-31T22:40:34;17.00;99.90
47604;DHT22;33326;51.116;6.900;2022-10-31T22:45:36;17.00;99.90
47604;DHT22;33326;51.116;6.900;2022-10-31T22:50:39;17.00;99.90
47604;DHT22;33326;51.116;6.900;2022-10-31T22:55:41;17.00;99.90
47604;DHT22;33326;51.116;6.900;2022-10-31T23:00:43;17.10;99.90
47604;DHT22;33326;51.116;6.900;2022-10-31T23:05:55;17.10;99.90
47604;DHT22;33326;51.116;6.900;2022-10-31T23:10:57;17.10;99.90
47604;DHT22;33326;51.116;6.900;2022-10-31T23:15:59;17.10;99.90
47604;DHT22;33326;51.116;6.900;2022-10-31T23:21:04;17.10;99.90
47604;DHT22;33326;51.116;6.900;2022-10-31T23:26:06;17.10;99.90
47604;DHT22;33326;51.116;6.900;2022-10-31T23:31:26;17.10;99.90
47604;DHT22;33326;51.116;6.900;2022-10-31T23:36:29;17.10;99.90
47604;DHT22;33326;51.116;6.900;2022-10-31T23:41:31;17.10;99.90
47604;DHT22;33326;51.116;6.900;2022-10-31T23:46:33;17.10;99.90
47604;DHT22;33326;51.116;6.900;2022-10-31T23:51:36;17.00;99.90
47604;DHT22;33326;51.116;6.900;2022-10-31T23:56:38;17.00;99.90
